createdAt,value
2018-07-23T00:01:38.411Z,91.60
2018-07-23T00:04:13.860Z,91.80
2018-07-23T00:06:49.330Z,92.10
2018-07-23T00:09:24.445Z,92.30
2018-07-23T00:11:59.672Z,92.50
2018-07-23T00:14:34.842Z,92.80
2018-07-23T00:17:10.151Z,93.20
2018-07-23T00:19:45.323Z,93.60
2018-07-23T00:22:20.354Z,93.90
2018-07-23T00:24:55.462Z,94.10
2018-07-23T00:27:30.587Z,94.40
2018-07-23T00:30:06.275Z,94.60
2018-07-23T00:32:41.737Z,94.90
2018-07-23T00:35:16.971Z,95.20
2018-07-23T00:37:52.219Z,95.30
2018-07-23T00:40:27.477Z,95.50
2018-07-23T00:43:02.822Z,95.60
2018-07-23T00:45:38.282Z,95.80
2018-07-23T00:48:13.668Z,96.00
2018-07-23T00:50:48.942Z,96.20
2018-07-23T00:53:24.209Z,96.20
2018-07-23T00:55:59.443Z,96.30
2018-07-23T00:58:34.781Z,96.30
2018-07-23T01:01:10.056Z,96.50
2018-07-23T01:03:45.168Z,96.90
2018-07-23T01:06:20.407Z,97.10
2018-07-23T01:08:56.016Z,97.10
2018-07-23T01:11:31.222Z,97.20
2018-07-23T01:14:06.775Z,97.40
2018-07-23T01:16:42.286Z,97.70
2018-07-23T01:19:17.563Z,97.70
2018-07-23T01:21:52.599Z,97.60
2018-07-23T01:24:28.008Z,97.80
2018-07-23T01:27:03.190Z,98.00
2018-07-23T01:29:38.298Z,98.20
2018-07-23T01:32:13.462Z,98.30
2018-07-23T01:34:48.675Z,98.20
2018-07-23T01:37:24.210Z,98.40
2018-07-23T01:39:59.491Z,98.60
2018-07-23T01:42:34.868Z,98.70
2018-07-23T01:47:45.153Z,98.70
2018-07-23T01:50:20.530Z,98.90
2018-07-23T01:52:56.041Z,99.00
2018-07-23T01:55:31.217Z,99.30
2018-07-23T01:58:06.444Z,99.50
2018-07-23T02:00:41.571Z,99.60
2018-07-23T02:03:16.819Z,99.50
2018-07-23T02:08:26.772Z,99.70
2018-07-23T02:11:02.120Z,99.70
2018-07-23T02:13:37.250Z,99.80
2018-07-23T02:16:12.432Z,99.90
2018-07-23T02:18:47.638Z,99.90
2018-07-23T02:21:23.232Z,99.90
2018-07-23T02:23:58.619Z,99.90
2018-07-23T02:26:34.118Z,99.90
2018-07-23T02:31:44.352Z,99.90
2018-07-23T02:34:19.603Z,99.90
2018-07-23T02:36:54.951Z,99.90
2018-07-23T02:39:30.258Z,99.90
2018-07-23T02:42:05.814Z,99.90
2018-07-23T02:44:41.067Z,99.90
2018-07-23T02:47:16.252Z,99.90
2018-07-23T02:49:51.461Z,99.90
2018-07-23T02:55:01.759Z,99.90
2018-07-23T02:57:37.036Z,99.90
2018-07-23T03:00:12.519Z,99.90
2018-07-23T03:02:47.567Z,99.90
2018-07-23T03:05:22.896Z,99.90
2018-07-23T03:07:58.023Z,99.90
2018-07-23T03:10:33.337Z,99.90
2018-07-23T03:13:08.487Z,99.90
2018-07-23T03:15:43.709Z,99.90
2018-07-23T03:18:18.826Z,99.90
2018-07-23T03:20:54.590Z,99.90
2018-07-23T03:23:29.979Z,99.90
2018-07-23T03:26:05.527Z,99.90
2018-07-23T03:28:40.658Z,99.90
2018-07-23T03:31:15.918Z,99.90
2018-07-23T03:33:51.344Z,99.90
2018-07-23T03:36:26.558Z,99.90
2018-07-23T03:39:02.034Z,99.90
2018-07-23T03:41:37.545Z,99.90
2018-07-23T03:44:12.667Z,99.90
2018-07-23T03:46:47.895Z,99.90
2018-07-23T03:49:22.931Z,99.90
2018-07-23T03:51:58.255Z,99.90
2018-07-23T03:54:33.503Z,99.90
2018-07-23T03:57:08.643Z,99.90
2018-07-23T03:59:43.936Z,99.90
2018-07-23T04:02:19.167Z,99.90
2018-07-23T04:04:54.286Z,99.90
2018-07-23T04:07:29.400Z,99.90
2018-07-23T04:10:05.107Z,99.90
2018-07-23T04:12:40.390Z,99.90
2018-07-23T04:15:15.747Z,99.90
2018-07-23T04:18:06.107Z,99.90
2018-07-23T04:20:41.382Z,99.90
2018-07-23T04:23:16.736Z,99.90
2018-07-23T04:25:52.028Z,99.90
2018-07-23T04:28:27.188Z,99.90
2018-07-23T04:31:02.682Z,99.90
2018-07-23T04:33:37.951Z,99.90
2018-07-23T04:36:13.209Z,99.90
2018-07-23T04:38:48.573Z,99.90
2018-07-23T04:41:23.840Z,99.90
2018-07-23T04:43:59.187Z,99.90
2018-07-23T04:46:34.260Z,99.90
2018-07-23T04:49:09.940Z,99.90
2018-07-23T04:51:44.989Z,99.90
2018-07-23T04:54:20.358Z,99.90
2018-07-23T04:56:55.561Z,99.90
2018-07-23T04:59:30.815Z,99.90
2018-07-23T05:02:06.533Z,99.90
2018-07-23T05:04:41.587Z,99.90
2018-07-23T05:07:16.855Z,99.90
2018-07-23T05:09:52.141Z,99.90
2018-07-23T05:12:27.608Z,99.90
2018-07-23T05:15:02.860Z,99.90
2018-07-23T05:17:38.171Z,99.90
2018-07-23T05:20:13.576Z,99.90
2018-07-23T05:22:48.987Z,99.90
2018-07-23T05:25:24.110Z,99.90
2018-07-23T05:27:59.867Z,99.90
2018-07-23T05:30:35.283Z,99.90
2018-07-23T05:33:10.419Z,99.90
2018-07-23T05:35:46.110Z,99.90
2018-07-23T05:38:21.471Z,99.90
2018-07-23T05:40:56.723Z,99.90
2018-07-23T05:43:32.118Z,99.90
2018-07-23T05:46:08.007Z,99.90
2018-07-23T05:48:43.208Z,99.90
2018-07-23T05:51:18.487Z,99.90
2018-07-23T05:53:53.749Z,99.90
2018-07-23T05:56:29.007Z,99.90
2018-07-23T05:59:04.291Z,99.90
2018-07-23T06:01:39.951Z,99.90
2018-07-23T06:04:15.506Z,99.90
2018-07-23T06:06:50.882Z,99.90
2018-07-23T06:09:25.913Z,99.90
2018-07-23T06:12:01.195Z,99.90
2018-07-23T06:14:36.477Z,99.90
2018-07-23T06:19:46.641Z,99.90
2018-07-23T06:22:21.891Z,99.90
2018-07-23T06:24:57.064Z,99.90
2018-07-23T06:27:32.469Z,99.90
2018-07-23T06:32:43.559Z,99.90
2018-07-23T06:35:18.896Z,99.80
2018-07-23T06:37:54.288Z,99.90
2018-07-23T06:40:29.747Z,99.50
2018-07-23T06:43:05.403Z,99.00
2018-07-23T06:45:40.987Z,99.20
2018-07-23T06:48:16.088Z,99.40
2018-07-23T06:50:51.466Z,99.30
2018-07-23T06:53:26.754Z,99.40
2018-07-23T06:58:36.655Z,98.50
2018-07-23T07:01:11.979Z,98.20
2018-07-23T07:03:47.101Z,98.20
2018-07-23T07:06:22.489Z,98.00
2018-07-23T07:08:57.947Z,97.80
2018-07-23T07:11:33.065Z,97.30
2018-07-23T07:14:08.779Z,97.20
2018-07-23T07:16:44.226Z,96.60
2018-07-23T07:19:19.812Z,96.50
2018-07-23T07:21:55.792Z,96.60
2018-07-23T07:24:31.098Z,96.30
2018-07-23T07:27:06.223Z,95.50
2018-07-23T07:29:41.715Z,95.40
2018-07-23T07:32:16.749Z,95.40
2018-07-23T07:34:52.090Z,94.50
2018-07-23T07:37:27.228Z,94.20
2018-07-23T07:40:02.541Z,93.60
2018-07-23T07:42:37.753Z,93.20
2018-07-23T07:45:12.890Z,92.90
2018-07-23T07:47:48.119Z,92.50
2018-07-23T07:50:23.551Z,92.90
2018-07-23T07:52:58.807Z,93.40
2018-07-23T07:55:33.896Z,93.70
2018-07-23T07:58:09.003Z,93.70
2018-07-23T08:00:44.324Z,93.20
2018-07-23T08:03:19.579Z,93.50
2018-07-23T08:05:54.907Z,93.70
2018-07-23T08:08:30.151Z,93.70
2018-07-23T08:11:05.268Z,93.60
2018-07-23T08:13:40.549Z,93.00
2018-07-23T08:16:15.849Z,93.30
2018-07-23T08:18:51.102Z,92.90
2018-07-23T08:21:26.449Z,93.20
2018-07-23T08:24:01.744Z,92.80
2018-07-23T08:26:36.869Z,92.90
2018-07-23T08:29:12.325Z,92.90
2018-07-23T08:31:47.685Z,92.80
2018-07-23T08:34:22.911Z,92.60
2018-07-23T08:36:58.504Z,92.30
2018-07-23T08:39:33.727Z,92.40
2018-07-23T08:42:08.839Z,92.10
2018-07-23T08:44:44.324Z,92.40
2018-07-23T08:47:19.404Z,92.40
2018-07-23T08:49:54.644Z,91.60
2018-07-23T08:52:29.816Z,91.20
2018-07-23T08:55:05.047Z,91.50
2018-07-23T08:57:40.398Z,91.10
2018-07-23T09:00:15.631Z,91.30
2018-07-23T09:02:50.970Z,90.90
2018-07-23T09:05:26.213Z,90.50
2018-07-23T09:08:01.378Z,90.60
2018-07-23T09:10:36.649Z,90.00
2018-07-23T09:13:11.930Z,89.40
2018-07-23T09:15:47.251Z,88.60
2018-07-23T09:18:22.474Z,89.10
2018-07-23T09:20:57.698Z,88.70
2018-07-23T09:23:33.210Z,87.30
2018-07-23T09:26:08.414Z,88.40
2018-07-23T09:28:43.946Z,87.50
2018-07-23T09:31:19.071Z,86.70
2018-07-23T09:33:54.252Z,86.70
2018-07-23T09:36:29.775Z,87.80
2018-07-23T09:39:08.095Z,87.00
2018-07-23T09:41:43.237Z,86.30
2018-07-23T09:44:18.337Z,84.80
2018-07-23T09:46:53.518Z,86.00
2018-07-23T09:49:29.039Z,85.60
2018-07-23T09:52:04.136Z,83.80
2018-07-23T09:54:39.219Z,84.00
2018-07-23T09:57:14.711Z,84.50
2018-07-23T09:59:49.922Z,85.80
2018-07-23T10:02:25.171Z,85.20
2018-07-23T10:05:00.376Z,84.10
2018-07-23T10:07:35.701Z,83.60
2018-07-23T10:10:11.202Z,83.90
2018-07-23T10:12:46.721Z,82.90
2018-07-23T10:15:21.935Z,82.30
2018-07-23T10:17:57.210Z,81.80
2018-07-23T10:23:07.287Z,80.40
2018-07-23T10:25:42.460Z,79.90
2018-07-23T10:28:17.589Z,80.10
2018-07-23T10:30:52.807Z,80.20
2018-07-23T10:33:28.108Z,80.80
2018-07-23T10:36:03.369Z,81.00
2018-07-23T10:38:38.488Z,80.90
2018-07-23T10:41:13.729Z,79.80
2018-07-23T10:43:48.845Z,80.00
2018-07-23T10:46:24.037Z,79.10
2018-07-23T10:51:34.255Z,79.40
2018-07-23T10:54:09.565Z,78.60
2018-07-23T10:56:44.636Z,78.80
2018-07-23T11:01:55.083Z,79.50
2018-07-23T11:04:30.270Z,77.50
2018-07-23T11:07:05.571Z,79.90
2018-07-23T11:12:16.131Z,78.90
2018-07-23T11:14:51.255Z,78.10
2018-07-23T11:17:26.561Z,77.30
2018-07-23T11:20:01.747Z,77.80
2018-07-23T11:22:37.010Z,77.70
2018-07-23T11:25:38.502Z,76.50
2018-07-23T11:27:47.567Z,76.80
2018-07-23T11:30:22.685Z,78.20
2018-07-23T11:32:57.789Z,75.60
2018-07-23T11:35:33.381Z,74.60
2018-07-23T11:38:08.630Z,74.10
2018-07-23T11:40:43.877Z,74.40
2018-07-23T11:43:18.958Z,74.60
2018-07-23T11:45:54.091Z,75.10
2018-07-23T11:48:29.268Z,74.70
2018-07-23T11:51:04.566Z,73.30
2018-07-23T11:53:39.784Z,73.10
2018-07-23T11:56:15.777Z,73.20
2018-07-23T11:58:51.049Z,74.00
2018-07-23T12:01:26.112Z,72.50
2018-07-23T12:04:01.151Z,70.90
2018-07-23T12:06:36.264Z,71.80
2018-07-23T12:09:11.887Z,71.30
2018-07-23T12:11:55.194Z,71.30
2018-07-23T12:14:30.388Z,72.10
2018-07-23T12:17:05.972Z,72.70
2018-07-23T12:19:41.208Z,72.90
2018-07-23T12:22:16.376Z,73.30
2018-07-23T12:24:52.060Z,71.40
2018-07-23T12:27:27.482Z,72.60
2018-07-23T12:30:02.779Z,72.80
2018-07-23T12:32:37.989Z,72.70
2018-07-23T12:35:13.226Z,72.20
2018-07-23T12:37:48.343Z,71.00
2018-07-23T12:40:24.053Z,69.90
2018-07-23T12:42:59.184Z,69.70
2018-07-23T12:45:34.339Z,69.30
2018-07-23T12:48:09.715Z,69.80
2018-07-23T12:50:45.390Z,69.30
2018-07-23T12:53:20.542Z,68.00
2018-07-23T12:55:55.696Z,68.70
2018-07-23T12:58:30.801Z,67.00
2018-07-23T13:01:06.044Z,68.30
2018-07-23T13:03:41.579Z,66.70
2018-07-23T13:06:16.871Z,67.00
2018-07-23T13:08:52.189Z,65.70
2018-07-23T13:11:27.516Z,66.50
2018-07-23T13:14:02.745Z,66.30
2018-07-23T13:16:37.989Z,65.10
2018-07-23T13:19:13.354Z,66.10
2018-07-23T13:21:48.504Z,65.60
2018-07-23T13:24:24.152Z,65.30
2018-07-23T13:26:59.431Z,65.40
2018-07-23T13:29:34.638Z,64.30
2018-07-23T13:32:09.815Z,64.90
2018-07-23T13:34:45.003Z,64.10
2018-07-23T13:37:20.342Z,64.40
2018-07-23T13:42:30.459Z,64.00
2018-07-23T13:45:05.815Z,62.60
2018-07-23T13:47:40.995Z,62.10
2018-07-23T13:50:16.248Z,61.70
2018-07-23T13:55:26.802Z,61.20
2018-07-23T13:58:02.716Z,62.40
2018-07-23T14:00:37.972Z,62.80
2018-07-23T14:03:13.339Z,62.50
2018-07-23T14:05:48.427Z,60.90
2018-07-23T14:08:23.743Z,61.50
2018-07-23T14:10:58.867Z,61.90
2018-07-23T14:16:08.976Z,62.90
2018-07-23T14:18:44.606Z,62.90
2018-07-23T14:21:19.887Z,63.40
2018-07-23T14:23:54.979Z,64.70
2018-07-23T14:26:30.142Z,63.00
2018-07-23T14:29:05.840Z,63.20
2018-07-23T14:31:41.078Z,62.50
2018-07-23T14:34:16.309Z,61.40
2018-07-23T14:36:51.942Z,61.70
2018-07-23T14:39:27.399Z,60.80
2018-07-23T14:42:02.581Z,61.30
2018-07-23T14:44:38.368Z,63.10
2018-07-23T14:47:13.549Z,61.70
2018-07-23T14:49:48.747Z,62.10
2018-07-23T14:52:24.006Z,61.30
2018-07-23T14:54:59.168Z,60.20
2018-07-23T14:57:34.625Z,60.00
2018-07-23T15:00:09.666Z,61.20
2018-07-23T15:02:44.738Z,62.30
2018-07-23T15:05:19.981Z,61.50
2018-07-23T15:07:55.450Z,60.80
2018-07-23T15:10:30.638Z,60.70
2018-07-23T15:13:06.131Z,62.70
2018-07-23T15:15:41.308Z,64.10
2018-07-23T15:18:16.616Z,64.10
2018-07-23T15:20:51.965Z,64.70
2018-07-23T15:23:27.284Z,64.20
2018-07-23T15:26:02.511Z,65.00
2018-07-23T15:31:12.895Z,65.40
2018-07-23T15:33:48.527Z,65.90
2018-07-23T15:36:24.198Z,66.20
2018-07-23T15:38:59.366Z,66.30
2018-07-23T15:41:34.664Z,66.30
2018-07-23T15:44:09.928Z,66.50
2018-07-23T15:46:45.299Z,67.60
2018-07-23T15:49:20.455Z,67.70
2018-07-23T15:51:56.692Z,66.90
2018-07-23T15:54:32.819Z,66.60
2018-07-23T15:57:08.786Z,66.20
2018-07-23T15:59:43.800Z,65.90
2018-07-23T16:02:19.019Z,64.90
2018-07-23T16:04:54.399Z,65.70
2018-07-23T16:07:29.558Z,65.80
2018-07-23T16:10:05.013Z,66.50
2018-07-23T16:12:40.474Z,66.50
2018-07-23T16:15:15.706Z,65.70
2018-07-23T16:17:51.167Z,66.30
2018-07-23T16:20:26.226Z,66.70
2018-07-23T16:23:01.577Z,67.20
2018-07-23T16:25:37.756Z,66.60
2018-07-23T16:28:13.030Z,66.60
2018-07-23T16:30:49.185Z,66.60
2018-07-23T16:33:24.627Z,65.70
2018-07-23T16:35:59.826Z,66.10
2018-07-23T16:38:35.014Z,65.90
2018-07-23T16:41:10.237Z,66.10
2018-07-23T16:43:45.432Z,66.20
2018-07-23T16:46:20.662Z,65.50
2018-07-23T16:48:56.057Z,66.50
2018-07-23T16:51:31.547Z,67.30
2018-07-23T16:54:06.888Z,67.50
2018-07-23T16:56:42.124Z,66.90
2018-07-23T16:59:17.294Z,67.80
2018-07-23T17:01:52.687Z,67.40
2018-07-23T17:04:27.859Z,67.10
2018-07-23T17:07:03.007Z,67.30
2018-07-23T17:09:38.154Z,67.20
2018-07-23T17:14:48.924Z,68.10
2018-07-23T17:17:24.182Z,67.80
2018-07-23T17:19:59.631Z,67.40
2018-07-23T17:22:34.812Z,67.00
2018-07-23T17:25:10.154Z,67.30
2018-07-23T17:27:45.576Z,67.00
2018-07-23T17:30:20.876Z,67.80
2018-07-23T17:32:56.843Z,68.20
2018-07-23T17:35:32.307Z,68.20
2018-07-23T17:38:07.403Z,68.20
2018-07-23T17:40:43.018Z,68.20
2018-07-23T17:43:18.546Z,67.70
2018-07-23T17:45:54.767Z,67.80
2018-07-23T17:53:40.006Z,67.00
2018-07-23T17:56:15.395Z,66.80
2018-07-23T17:59:17.676Z,67.10
2018-07-23T18:01:53.883Z,67.00
2018-07-23T18:04:29.084Z,67.00
2018-07-23T18:07:04.550Z,67.70
2018-07-23T18:09:39.894Z,67.80
2018-07-23T18:12:15.010Z,67.70
2018-07-23T18:14:50.491Z,67.80
2018-07-23T18:17:25.783Z,69.00
2018-07-23T18:20:01.147Z,69.40
2018-07-23T18:22:36.246Z,69.80
2018-07-23T18:25:11.660Z,69.20
2018-07-23T18:27:46.675Z,68.60
2018-07-23T18:30:21.734Z,69.10
2018-07-23T18:32:56.879Z,69.80
2018-07-23T18:35:32.427Z,71.20
2018-07-23T18:38:07.837Z,71.40
2018-07-23T18:40:43.367Z,71.60
2018-07-23T18:43:18.666Z,71.60
2018-07-23T18:45:54.046Z,73.00
2018-07-23T18:49:41.094Z,73.20
2018-07-23T18:52:16.930Z,73.20
2018-07-23T18:54:53.539Z,71.80
2018-07-23T18:57:28.740Z,71.40
2018-07-23T19:00:05.146Z,71.20
2018-07-23T19:02:40.325Z,71.20
2018-07-23T19:05:15.672Z,71.50
2018-07-23T19:07:51.764Z,72.10
2018-07-23T19:10:27.324Z,72.50
2018-07-23T19:13:02.510Z,72.60
2018-07-23T19:15:37.755Z,72.80
2018-07-23T19:18:13.008Z,73.00
2018-07-23T19:20:48.462Z,73.10
2018-07-23T19:23:23.759Z,73.10
2018-07-23T19:25:58.976Z,73.10
2018-07-23T19:28:34.286Z,73.30
2018-07-23T19:31:09.566Z,73.70
2018-07-23T19:33:44.893Z,74.10
2018-07-23T19:36:20.193Z,74.50
2018-07-23T19:38:55.888Z,74.80
2018-07-23T19:41:31.437Z,75.10
2018-07-23T19:44:07.907Z,75.70
2018-07-23T19:46:43.512Z,74.70
2018-07-23T19:49:18.880Z,75.30
2018-07-23T19:51:54.008Z,75.20
2018-07-23T19:54:29.239Z,74.40
2018-07-23T19:57:04.450Z,74.80
2018-07-23T19:59:39.720Z,75.00
2018-07-23T20:02:14.799Z,74.90
2018-07-23T20:04:50.151Z,78.10
2018-07-23T20:07:25.416Z,77.40
2018-07-23T20:10:00.825Z,77.60
2018-07-23T20:12:35.990Z,77.30
2018-07-23T20:15:11.193Z,78.60
2018-07-23T20:17:46.469Z,79.40
2018-07-23T20:20:21.649Z,80.00
2018-07-23T20:22:56.699Z,79.20
2018-07-23T20:25:33.420Z,80.30
2018-07-23T20:30:44.535Z,82.40
2018-07-23T20:33:19.586Z,84.00
2018-07-23T20:35:54.699Z,84.80
2018-07-23T20:38:30.062Z,84.10
2018-07-23T20:41:05.251Z,84.60
2018-07-23T20:43:40.421Z,84.60
2018-07-23T20:46:15.638Z,85.00
2018-07-23T20:48:50.991Z,85.30
2018-07-23T20:51:26.194Z,85.90
2018-07-23T20:54:01.668Z,86.10
2018-07-23T20:56:37.010Z,86.40
2018-07-23T20:59:12.464Z,86.50
2018-07-23T21:01:47.864Z,86.70
2018-07-23T21:04:23.272Z,87.00
2018-07-23T21:06:59.292Z,87.10
2018-07-23T21:09:34.486Z,87.00
2018-07-23T21:12:09.818Z,86.90
2018-07-23T21:14:45.023Z,87.10
2018-07-23T21:17:20.207Z,87.30
2018-07-23T21:19:55.431Z,87.60
2018-07-23T21:22:30.743Z,87.70
2018-07-23T21:25:07.090Z,88.10
2018-07-23T21:27:48.826Z,88.40
2018-07-23T21:30:23.995Z,88.30
2018-07-23T21:32:59.305Z,88.40
2018-07-23T21:35:34.823Z,88.90
2018-07-23T21:38:10.068Z,89.00
2018-07-23T21:40:45.691Z,89.30
2018-07-23T21:43:20.791Z,89.70
2018-07-23T21:48:31.056Z,90.10
2018-07-23T21:51:07.485Z,90.00
2018-07-23T21:53:42.959Z,90.20
2018-07-23T21:56:18.182Z,90.40
2018-07-23T21:58:53.561Z,90.70
2018-07-23T22:01:28.747Z,91.20
2018-07-23T22:04:03.951Z,91.40
2018-07-23T22:06:39.146Z,91.40
2018-07-23T22:09:14.463Z,91.60
2018-07-23T22:11:49.738Z,92.00
2018-07-23T22:14:24.858Z,92.00
2018-07-23T22:17:00.222Z,92.10
2018-07-23T22:19:35.955Z,92.20
2018-07-23T22:22:11.282Z,92.20
2018-07-23T22:24:46.428Z,92.50
2018-07-23T22:29:56.791Z,92.90
2018-07-23T22:32:31.909Z,93.10
2018-07-23T22:35:07.207Z,94.20
2018-07-23T22:37:42.301Z,95.90
2018-07-23T22:40:17.876Z,97.10
2018-07-23T22:42:53.170Z,98.60
2018-07-23T22:45:28.382Z,99.70
2018-07-23T22:48:03.670Z,99.90
2018-07-23T22:50:38.954Z,99.90
2018-07-23T22:53:14.162Z,99.90
2018-07-23T22:55:49.344Z,99.90
2018-07-23T22:58:24.508Z,99.90
2018-07-23T23:00:59.779Z,99.20
2018-07-23T23:03:34.985Z,98.70
2018-07-23T23:06:10.432Z,98.30
2018-07-23T23:08:45.484Z,98.20
2018-07-23T23:11:20.801Z,98.50
2018-07-23T23:13:56.032Z,98.90
2018-07-23T23:16:31.183Z,98.40
2018-07-23T23:19:06.339Z,98.80
2018-07-23T23:21:41.811Z,99.10
2018-07-23T23:24:17.181Z,99.60
2018-07-23T23:26:53.185Z,99.70
2018-07-23T23:29:28.478Z,99.60
2018-07-23T23:32:03.744Z,99.60
2018-07-23T23:34:39.360Z,99.70
2018-07-23T23:37:14.611Z,99.90
2018-07-23T23:39:50.014Z,99.90
2018-07-23T23:42:25.593Z,99.90
2018-07-23T23:45:00.815Z,99.90
2018-07-23T23:47:36.028Z,99.90
2018-07-23T23:50:11.351Z,99.90
2018-07-23T23:52:46.584Z,99.90
2018-07-23T23:55:21.843Z,99.90
2018-07-23T23:57:57.394Z,99.90
